createdAt,value
2018-01-11T00:01:32.025Z,58.97
2018-01-11T00:04:00.764Z,60.97
2018-01-11T00:06:28.727Z,50.87
2018-01-11T00:08:56.702Z,59.23
2018-01-11T00:11:24.693Z,56.43
2018-01-11T00:13:52.717Z,52.50
2018-01-11T00:16:21.117Z,58.90
2018-01-11T00:18:49.114Z,52.60
2018-01-11T00:21:17.105Z,63.00
2018-01-11T00:23:45.883Z,61.40
2018-01-11T00:26:13.922Z,63.17
2018-01-11T00:28:41.892Z,54.67
2018-01-11T00:31:09.854Z,54.30
2018-01-11T00:33:37.840Z,55.60
2018-01-11T00:36:06.614Z,58.67
2018-01-11T00:38:35.387Z,56.17
2018-01-11T00:41:03.378Z,61.87
2018-01-11T00:43:31.374Z,65.37
2018-01-11T00:45:59.385Z,57.00
2018-01-11T00:48:27.378Z,57.77
2018-01-11T00:50:55.346Z,59.13
2018-01-11T00:53:23.323Z,55.13
2018-01-11T00:55:51.290Z,59.77
2018-01-11T00:58:19.283Z,56.13
2018-01-11T01:00:47.279Z,56.90
2018-01-11T01:03:16.037Z,58.33
2018-01-11T01:05:44.042Z,63.57
2018-01-11T01:08:12.846Z,60.43
2018-01-11T01:10:40.826Z,53.87
2018-01-11T01:13:08.822Z,64.23
2018-01-11T01:15:36.811Z,66.60
2018-01-11T01:18:04.826Z,55.87
2018-01-11T01:20:32.834Z,64.03
2018-01-11T01:23:00.831Z,56.87
2018-01-11T01:25:29.590Z,63.83
2018-01-11T01:27:57.571Z,62.57
2018-01-11T01:30:25.597Z,66.63
2018-01-11T01:32:53.575Z,61.50
2018-01-11T01:35:21.576Z,54.03
2018-01-11T01:37:49.574Z,65.93
2018-01-11T01:40:18.311Z,62.30
2018-01-11T01:42:46.304Z,61.63
2018-01-11T01:45:14.277Z,60.13
2018-01-11T01:47:42.255Z,57.93
2018-01-11T01:50:11.026Z,59.77
2018-01-11T01:52:39.004Z,57.20
2018-01-11T01:55:06.998Z,64.20
2018-01-11T01:57:35.746Z,60.27
2018-01-11T02:00:03.850Z,64.70
2018-01-11T02:02:32.560Z,64.60
2018-01-11T02:05:00.550Z,62.70
2018-01-11T02:07:28.518Z,58.43
2018-01-11T02:09:56.712Z,63.60
2018-01-11T02:12:24.713Z,59.80
2018-01-11T02:14:53.439Z,61.77
2018-01-11T02:17:21.414Z,59.10
2018-01-11T02:19:49.430Z,58.00
2018-01-11T02:22:17.418Z,67.60
2018-01-11T02:24:46.159Z,70.60
2018-01-11T02:27:14.169Z,65.60
2018-01-11T02:29:42.926Z,56.30
2018-01-11T02:32:10.926Z,62.10
2018-01-11T02:34:39.685Z,57.43
2018-01-11T02:37:07.659Z,60.90
2018-01-11T02:39:35.632Z,58.53
2018-01-11T02:42:03.646Z,62.20
2018-01-11T02:44:31.611Z,54.27
2018-01-11T02:46:59.588Z,56.60
2018-01-11T02:49:27.579Z,59.17
2018-01-11T02:51:55.560Z,61.80
2018-01-11T02:54:23.554Z,53.63
2018-01-11T02:56:52.303Z,66.70
2018-01-11T02:59:20.291Z,58.50
2018-01-11T03:01:48.293Z,57.47
2018-01-11T03:04:17.090Z,61.40
2018-01-11T03:06:45.098Z,56.70
2018-01-11T03:09:13.075Z,64.90
2018-01-11T03:11:41.086Z,62.37
2018-01-11T03:14:09.862Z,61.60
2018-01-11T03:16:37.907Z,60.27
2018-01-11T03:19:05.943Z,59.67
2018-01-11T03:21:33.942Z,63.90
2018-01-11T03:24:01.924Z,60.20
2018-01-11T03:26:29.937Z,60.20
2018-01-11T03:28:57.909Z,55.90
2018-01-11T03:31:25.895Z,65.37
2018-01-11T03:33:53.891Z,61.20
2018-01-11T03:36:21.914Z,68.47
2018-01-11T03:38:49.913Z,67.93
2018-01-11T03:41:17.911Z,60.43
2018-01-11T03:43:46.154Z,69.23
2018-01-11T03:46:14.132Z,60.73
2018-01-11T03:48:42.126Z,69.97
2018-01-11T03:51:10.129Z,64.27
2018-01-11T03:53:38.938Z,65.97
2018-01-11T03:56:06.934Z,59.27
2018-01-11T03:58:34.936Z,57.17
2018-01-11T04:01:02.928Z,61.40
2018-01-11T04:03:31.691Z,55.17
2018-01-11T04:05:59.683Z,65.53
2018-01-11T04:08:28.427Z,67.47
2018-01-11T04:10:56.434Z,65.57
2018-01-11T04:13:25.192Z,57.07
2018-01-11T04:15:53.174Z,56.30
2018-01-11T04:18:21.150Z,58.43
2018-01-11T04:20:49.905Z,61.33
2018-01-11T04:23:17.867Z,59.87
2018-01-11T04:25:45.864Z,64.60
2018-01-11T04:28:13.879Z,64.20
2018-01-11T04:30:41.889Z,59.20
2018-01-11T04:33:09.882Z,61.00
2018-01-11T04:35:38.627Z,66.03
2018-01-11T04:38:06.604Z,58.77
2018-01-11T04:40:34.639Z,62.87
2018-01-11T04:43:02.630Z,59.90
2018-01-11T04:45:30.611Z,59.60
2018-01-11T04:47:59.356Z,57.27
2018-01-11T04:50:27.339Z,62.97
2018-01-11T04:52:55.343Z,71.50
2018-01-11T04:55:23.342Z,64.20
2018-01-11T04:57:52.113Z,64.13
2018-01-11T05:00:20.143Z,67.77
2018-01-11T05:02:48.137Z,64.37
2018-01-11T05:05:16.110Z,59.03
2018-01-11T05:07:44.101Z,55.90
2018-01-11T05:10:12.137Z,67.47
2018-01-11T05:12:40.123Z,54.97
2018-01-11T05:15:08.110Z,53.07
2018-01-11T05:17:36.117Z,59.93
2018-01-11T05:20:04.123Z,58.30
2018-01-11T05:22:32.118Z,60.80
2018-01-11T05:25:00.121Z,59.10
2018-01-11T05:27:28.122Z,59.17
2018-01-11T05:29:56.116Z,58.43
2018-01-11T05:34:59.130Z,54.80
2018-01-11T05:37:27.139Z,63.97
2018-01-11T05:39:55.142Z,49.70
2018-01-11T05:42:23.347Z,52.10
2018-01-11T05:44:51.359Z,57.77
2018-01-11T05:47:19.486Z,54.70
2018-01-11T05:49:47.518Z,53.30
2018-01-11T05:52:15.538Z,54.93
2018-01-11T05:54:44.314Z,55.63
2018-01-11T05:57:12.350Z,57.20
2018-01-11T05:59:40.327Z,57.03
2018-01-11T06:02:08.399Z,52.50
2018-01-11T06:04:36.383Z,57.07
2018-01-11T06:07:04.391Z,56.63
2018-01-11T06:09:32.433Z,53.87
2018-01-11T06:12:00.407Z,55.30
2018-01-11T06:14:29.169Z,50.90
2018-01-11T06:16:57.206Z,56.90
2018-01-11T06:19:25.210Z,55.23
2018-01-11T06:21:53.218Z,53.27
2018-01-11T06:24:21.983Z,58.27
2018-01-11T06:26:50.069Z,56.53
2018-01-11T06:29:18.805Z,47.87
2018-01-11T06:31:46.801Z,53.77
2018-01-11T06:34:14.791Z,48.63
2018-01-11T06:36:43.551Z,47.93
2018-01-11T06:39:11.559Z,53.63
2018-01-11T06:41:40.289Z,49.57
2018-01-11T06:44:09.092Z,62.10
2018-01-11T06:46:37.106Z,57.87
2018-01-11T06:49:05.915Z,55.97
2018-01-11T06:51:33.907Z,59.27
2018-01-11T06:54:01.915Z,54.17
2018-01-11T06:56:29.892Z,53.20
2018-01-11T06:58:58.663Z,53.33
2018-01-11T07:01:26.656Z,51.40
2018-01-11T07:03:55.419Z,48.00
2018-01-11T07:06:23.422Z,48.93
2018-01-11T07:08:51.410Z,46.23
2018-01-11T07:11:19.478Z,42.40
2018-01-11T07:13:47.519Z,49.00
2018-01-11T07:16:16.296Z,45.60
2018-01-11T07:18:44.301Z,38.47
2018-01-11T07:21:12.283Z,42.23
2018-01-11T07:23:40.262Z,44.17
2018-01-11T07:26:08.287Z,41.30
2018-01-11T07:28:37.039Z,44.50
2018-01-11T07:31:05.039Z,38.47
2018-01-11T07:33:33.775Z,42.60
2018-01-11T07:36:01.750Z,37.50
2018-01-11T07:38:29.738Z,40.20
2018-01-11T07:40:57.738Z,36.03
2018-01-11T07:43:26.487Z,41.17
2018-01-11T07:45:54.494Z,35.60
2018-01-11T07:48:23.235Z,41.87
2018-01-11T07:50:51.982Z,41.67
2018-01-11T07:53:20.008Z,40.37
2018-01-11T07:55:48.022Z,37.00
2018-01-11T07:58:17.126Z,43.30
2018-01-11T08:00:45.147Z,43.17
2018-01-11T08:03:13.146Z,42.90
2018-01-11T08:05:41.902Z,41.83
2018-01-11T08:08:09.919Z,46.93
2018-01-11T08:10:37.919Z,42.10
2018-01-11T08:13:05.897Z,46.60
2018-01-11T08:15:33.874Z,43.77
2018-01-11T08:18:01.897Z,40.53
2018-01-11T08:20:29.862Z,47.20
2018-01-11T08:22:57.834Z,39.80
2018-01-11T08:25:25.835Z,43.47
2018-01-11T08:27:53.858Z,47.43
2018-01-11T08:30:22.611Z,42.67
2018-01-11T08:32:50.594Z,42.70
2018-01-11T08:35:18.639Z,38.20
2018-01-11T08:37:46.620Z,36.83
2018-01-11T08:40:14.586Z,39.13
2018-01-11T08:42:42.582Z,35.53
2018-01-11T08:45:11.307Z,37.20
2018-01-11T08:47:39.324Z,38.77
2018-01-11T08:50:07.299Z,34.60
2018-01-11T08:52:35.262Z,31.50
2018-01-11T08:55:03.231Z,35.27
2018-01-11T08:57:31.219Z,33.33
2018-01-11T08:59:59.974Z,39.93
2018-01-11T09:02:27.956Z,36.23
2018-01-11T09:04:55.923Z,35.80
2018-01-11T09:07:23.909Z,39.10
2018-01-11T09:09:52.646Z,34.97
2018-01-11T09:12:20.643Z,39.03
2018-01-11T09:14:48.641Z,37.80
2018-01-11T09:17:16.660Z,39.93
2018-01-11T09:19:44.672Z,45.33
2018-01-11T09:22:13.420Z,43.10
2018-01-11T09:24:41.411Z,46.33
2018-01-11T09:27:09.418Z,49.47
2018-01-11T09:29:37.386Z,47.97
2018-01-11T09:32:05.363Z,50.30
2018-01-11T09:34:33.366Z,44.97
2018-01-11T09:37:01.369Z,55.20
2018-01-11T09:39:29.355Z,55.03
2018-01-11T09:41:58.136Z,45.90
2018-01-11T09:44:26.162Z,45.20
2018-01-11T09:46:54.142Z,57.27
2018-01-11T09:49:22.112Z,50.73
2018-01-11T09:51:50.147Z,42.27
2018-01-11T09:54:18.153Z,50.33
2018-01-11T09:56:46.190Z,53.80
2018-01-11T09:59:14.226Z,43.83
2018-01-11T10:01:43.009Z,41.43
2018-01-11T10:04:11.751Z,38.00
2018-01-11T10:06:39.754Z,42.23
2018-01-11T10:09:08.569Z,34.63
2018-01-11T10:11:36.551Z,41.37
2018-01-11T10:14:04.548Z,38.43
2018-01-11T10:16:32.533Z,35.70
2018-01-11T10:19:00.899Z,37.17
2018-01-11T10:21:28.937Z,40.57
2018-01-11T10:23:56.887Z,36.80
2018-01-11T10:26:25.611Z,36.53
2018-01-11T10:28:53.669Z,39.93
2018-01-11T10:31:21.647Z,39.33
2018-01-11T10:33:49.636Z,43.03
2018-01-11T10:36:17.637Z,39.53
2018-01-11T10:38:45.630Z,44.83
2018-01-11T10:41:13.630Z,35.20
2018-01-11T10:43:41.630Z,42.10
2018-01-11T10:46:09.905Z,32.90
2018-01-11T10:48:37.898Z,41.37
2018-01-11T10:51:06.635Z,37.80
2018-01-11T10:53:34.599Z,35.37
2018-01-11T10:56:02.566Z,34.80
2018-01-11T10:58:30.518Z,43.70
2018-01-11T11:01:04.180Z,43.37
2018-01-11T11:03:32.192Z,38.80
2018-01-11T11:06:00.173Z,45.37
2018-01-11T11:08:28.166Z,44.07
2018-01-11T11:10:56.158Z,35.13
2018-01-11T11:13:24.124Z,37.70
2018-01-11T11:15:52.438Z,37.03
2018-01-11T11:18:20.419Z,39.53
2018-01-11T11:20:48.398Z,33.93
2018-01-11T11:23:17.798Z,33.73
2018-01-11T11:25:45.777Z,27.00
2018-01-11T11:28:13.745Z,34.13
2018-01-11T11:30:41.718Z,40.17
2018-01-11T11:33:09.677Z,28.00
2018-01-11T11:35:37.652Z,28.20
2018-01-11T11:38:05.614Z,38.63
2018-01-11T11:40:33.536Z,35.73
2018-01-11T11:43:02.289Z,37.83
2018-01-11T11:45:30.277Z,35.97
2018-01-11T11:47:58.304Z,34.50
2018-01-11T11:50:26.258Z,38.53
2018-01-11T11:52:54.256Z,39.33
2018-01-11T11:55:22.264Z,45.97
2018-01-11T11:57:51.070Z,40.87
2018-01-11T12:00:19.034Z,40.70
2018-01-11T12:02:47.790Z,39.43
2018-01-11T12:05:15.759Z,32.43
2018-01-11T12:07:43.742Z,31.87
2018-01-11T12:10:11.742Z,38.73
2018-01-11T12:12:39.732Z,35.73
2018-01-11T12:15:07.730Z,33.87
2018-01-11T12:17:35.718Z,33.23
2018-01-11T12:20:04.502Z,31.30
2018-01-11T12:22:32.510Z,32.57
2018-01-11T12:25:00.524Z,32.57
2018-01-11T12:27:28.542Z,33.67
2018-01-11T12:29:56.534Z,40.83
2018-01-11T12:32:24.523Z,35.83
2018-01-11T12:34:52.471Z,31.70
2018-01-11T12:37:20.457Z,32.33
2018-01-11T12:39:48.415Z,33.10
2018-01-11T12:42:16.397Z,33.53
2018-01-11T12:44:44.350Z,34.67
2018-01-11T12:47:12.310Z,37.60
2018-01-11T12:49:40.290Z,32.47
2018-01-11T12:52:08.258Z,39.10
2018-01-11T12:54:36.235Z,37.40
2018-01-11T12:57:04.204Z,35.53
2018-01-11T12:59:32.931Z,32.00
2018-01-11T13:02:01.734Z,30.17
2018-01-11T13:04:29.717Z,38.10
2018-01-11T13:06:57.695Z,39.93
2018-01-11T13:09:25.663Z,29.20
2018-01-11T13:11:53.682Z,34.97
2018-01-11T13:14:21.632Z,31.70
2018-01-11T13:16:50.350Z,28.43
2018-01-11T13:19:19.087Z,33.53
2018-01-11T13:21:47.066Z,29.60
2018-01-11T13:24:15.049Z,29.47
2018-01-11T13:26:43.049Z,27.83
2018-01-11T13:29:12.711Z,27.40
2018-01-11T13:31:40.688Z,26.80
2018-01-11T13:34:08.685Z,31.77
2018-01-11T13:36:36.671Z,28.00
2018-01-11T13:39:05.546Z,25.47
2018-01-11T13:41:33.539Z,30.80
2018-01-11T13:44:01.534Z,37.07
2018-01-11T13:46:29.505Z,25.47
2018-01-11T13:48:57.467Z,28.03
2018-01-11T13:51:25.455Z,21.63
2018-01-11T13:53:53.421Z,27.00
2018-01-11T13:56:21.390Z,22.97
2018-01-11T13:58:49.365Z,23.47
2018-01-11T14:01:17.379Z,22.57
2018-01-11T14:03:46.134Z,22.33
2018-01-11T14:06:14.152Z,18.43
2018-01-11T14:08:42.117Z,17.63
2018-01-11T14:11:10.111Z,15.23
2018-01-11T14:13:38.095Z,16.80
2018-01-11T14:16:06.079Z,16.23
2018-01-11T14:18:34.068Z,20.07
2018-01-11T14:21:02.050Z,15.53
2018-01-11T14:23:30.801Z,13.40
2018-01-11T14:25:58.776Z,19.97
2018-01-11T14:28:26.739Z,15.80
2018-01-11T14:30:54.726Z,14.60
2018-01-11T14:33:22.707Z,15.67
2018-01-11T14:35:51.471Z,16.13
2018-01-11T14:38:19.439Z,18.20
2018-01-11T14:40:47.438Z,20.20
2018-01-11T14:43:16.156Z,16.33
2018-01-11T14:45:44.149Z,18.23
2018-01-11T14:48:12.139Z,17.50
2018-01-11T14:50:40.112Z,20.33
2018-01-11T14:53:08.085Z,23.63
2018-01-11T14:55:36.842Z,20.27
2018-01-11T14:58:04.809Z,21.77
2018-01-11T15:00:32.817Z,22.83
2018-01-11T15:03:01.590Z,22.80
2018-01-11T15:05:29.586Z,22.40
2018-01-11T15:07:58.340Z,26.30
2018-01-11T15:10:26.358Z,24.10
2018-01-11T15:12:54.346Z,26.60
2018-01-11T15:15:22.350Z,20.93
2018-01-11T15:17:50.315Z,23.87
2018-01-11T15:20:18.306Z,23.83
2018-01-11T15:22:46.270Z,24.00
2018-01-11T15:25:14.239Z,25.80
2018-01-11T15:27:42.227Z,24.40
2018-01-11T15:30:11.000Z,25.43
2018-01-11T15:32:39.753Z,25.10
2018-01-11T15:35:07.729Z,26.60
2018-01-11T15:37:35.714Z,27.17
2018-01-11T15:40:03.746Z,29.23
2018-01-11T15:42:31.764Z,26.27
2018-01-11T15:44:59.741Z,33.63
2018-01-11T15:47:28.523Z,31.50
2018-01-11T15:49:56.474Z,31.67
2018-01-11T15:52:24.458Z,31.83
2018-01-11T15:54:52.510Z,33.67
2018-01-11T15:57:20.516Z,31.43
2018-01-11T15:59:49.289Z,33.80
2018-01-11T16:02:18.032Z,34.43
2018-01-11T16:04:46.009Z,40.20
2018-01-11T16:07:14.586Z,40.53
2018-01-11T16:09:42.584Z,35.90
2018-01-11T16:12:10.556Z,40.80
2018-01-11T16:14:38.517Z,39.23
2018-01-11T16:17:06.543Z,36.13
2018-01-11T16:19:34.565Z,44.53
2018-01-11T16:22:02.568Z,44.57
2018-01-11T16:24:30.586Z,42.10
2018-01-11T16:26:59.776Z,43.90
2018-01-11T16:29:27.797Z,48.60
2018-01-11T16:31:56.544Z,48.67
2018-01-11T16:34:24.545Z,47.47
2018-01-11T16:36:53.378Z,41.03
2018-01-11T16:39:21.383Z,55.33
2018-01-11T16:41:49.413Z,45.67
2018-01-11T16:44:17.414Z,44.33
2018-01-11T16:46:45.402Z,40.87
2018-01-11T16:49:13.410Z,45.80
2018-01-11T16:51:42.350Z,46.13
2018-01-11T16:54:10.338Z,40.93
2018-01-11T16:56:39.119Z,49.37
2018-01-11T16:59:07.118Z,44.60
2018-01-11T17:01:35.104Z,44.53
2018-01-11T17:04:03.100Z,45.57
2018-01-11T17:06:31.142Z,39.00
2018-01-11T17:08:59.150Z,42.87
2018-01-11T17:11:27.202Z,44.70
2018-01-11T17:13:55.195Z,45.57
2018-01-11T17:16:23.171Z,44.10
2018-01-11T17:18:51.204Z,43.33
2018-01-11T17:21:19.207Z,48.80
2018-01-11T17:23:47.402Z,50.23
2018-01-11T17:26:16.182Z,44.83
2018-01-11T17:28:44.194Z,51.43
2018-01-11T17:31:12.206Z,40.90
2018-01-11T17:33:40.254Z,60.97
2018-01-11T17:36:08.258Z,44.47
2018-01-11T17:38:36.258Z,56.97
2018-01-11T17:41:04.811Z,55.27
2018-01-11T17:43:32.815Z,46.47
2018-01-11T17:46:00.786Z,47.17
2018-01-11T17:48:28.794Z,51.40
2018-01-11T17:50:56.788Z,47.40
2018-01-11T17:53:24.775Z,46.93
2018-01-11T17:55:53.583Z,52.00
2018-01-11T17:58:21.583Z,53.20
2018-01-11T18:00:49.686Z,45.63
2018-01-11T18:03:17.784Z,47.13
2018-01-11T18:05:45.798Z,45.87
2018-01-11T18:08:13.842Z,49.37
2018-01-11T18:10:41.850Z,50.17
2018-01-11T18:13:09.859Z,64.60
2018-01-11T18:15:38.638Z,61.47
2018-01-11T18:18:07.417Z,52.83
2018-01-11T18:20:36.188Z,59.03
2018-01-11T18:23:04.198Z,57.60
2018-01-11T18:25:32.212Z,49.40
2018-01-11T18:28:00.255Z,55.93
2018-01-11T18:30:28.270Z,52.20
2018-01-11T18:32:56.302Z,52.03
2018-01-11T18:35:24.303Z,58.40
2018-01-11T18:37:52.279Z,54.10
2018-01-11T18:40:20.259Z,48.07
2018-01-11T18:42:48.278Z,56.03
2018-01-11T18:45:16.277Z,50.67
2018-01-11T18:47:44.324Z,53.80
2018-01-11T18:50:12.338Z,52.43
2018-01-11T18:52:40.386Z,54.33
2018-01-11T18:55:08.371Z,63.83
2018-01-11T18:57:36.352Z,56.43
2018-01-11T19:00:05.224Z,52.00
2018-01-11T19:02:33.214Z,50.63
2018-01-11T19:05:02.044Z,44.03
2018-01-11T19:07:30.050Z,42.83
2018-01-11T19:09:58.066Z,44.97
2018-01-11T19:12:26.038Z,52.47
2018-01-11T19:14:54.027Z,50.50
2018-01-11T19:17:22.040Z,51.37
2018-01-11T19:19:50.027Z,43.13
2018-01-11T19:22:18.780Z,55.47
2018-01-11T19:24:46.785Z,49.80
2018-01-11T19:27:15.558Z,41.73
2018-01-11T19:29:44.336Z,47.63
2018-01-11T19:32:12.349Z,44.47
2018-01-11T19:34:40.350Z,50.10
2018-01-11T19:37:08.363Z,50.80
2018-01-11T19:39:37.190Z,49.37
2018-01-11T19:42:05.200Z,45.93
2018-01-11T19:44:33.234Z,49.00
2018-01-11T19:47:01.318Z,52.03
2018-01-11T19:49:29.394Z,48.13
2018-01-11T19:51:57.391Z,47.50
2018-01-11T19:54:25.371Z,50.33
2018-01-11T19:56:54.147Z,59.50
2018-01-11T19:59:22.234Z,55.00
2018-01-11T20:01:50.262Z,56.23
2018-01-11T20:04:18.270Z,49.13
2018-01-11T20:06:47.049Z,51.73
2018-01-11T20:09:15.082Z,46.47
2018-01-11T20:11:43.063Z,52.73
2018-01-11T20:14:11.074Z,56.33
2018-01-11T20:16:39.811Z,60.53
2018-01-11T20:19:07.798Z,62.90
2018-01-11T20:21:36.093Z,59.63
2018-01-11T20:24:04.860Z,59.47
2018-01-11T20:26:32.862Z,61.20
2018-01-11T20:29:01.628Z,52.93
2018-01-11T20:31:29.627Z,54.77
2018-01-11T20:33:58.375Z,60.67
2018-01-11T20:36:26.437Z,59.43
2018-01-11T20:38:54.532Z,65.47
2018-01-11T20:41:22.514Z,57.50
2018-01-11T20:43:51.258Z,55.80
2018-01-11T20:46:19.286Z,53.57
2018-01-11T20:48:47.301Z,49.20
2018-01-11T20:51:15.319Z,59.77
2018-01-11T20:53:43.319Z,50.50
2018-01-11T20:56:11.318Z,48.53
2018-01-11T20:58:39.321Z,48.47
2018-01-11T21:01:08.136Z,53.10
2018-01-11T21:03:36.170Z,47.30
2018-01-11T21:06:05.292Z,54.30
2018-01-11T21:08:33.293Z,51.57
2018-01-11T21:11:01.322Z,47.60
2018-01-11T21:13:30.102Z,70.50
2018-01-11T21:15:58.950Z,51.27
2018-01-11T21:18:26.923Z,44.67
2018-01-11T21:20:54.917Z,48.77
2018-01-11T21:23:22.922Z,48.23
2018-01-11T21:25:55.078Z,46.97
2018-01-11T21:28:23.049Z,44.53
2018-01-11T21:30:51.046Z,45.40
2018-01-11T21:33:19.090Z,43.77
2018-01-11T21:35:47.102Z,43.03
2018-01-11T21:38:15.114Z,45.53
2018-01-11T21:40:43.863Z,47.90
2018-01-11T21:43:11.870Z,52.67
2018-01-11T21:45:40.615Z,48.63
2018-01-11T21:48:08.643Z,52.83
2018-01-11T21:50:36.622Z,49.30
2018-01-11T21:53:04.634Z,48.00
2018-01-11T21:55:32.615Z,62.17
2018-01-11T21:58:00.635Z,46.97
2018-01-11T22:00:28.678Z,57.28
2018-01-11T22:02:56.672Z,51.53
2018-01-11T22:05:24.742Z,49.53
2018-01-11T22:07:53.735Z,51.47
2018-01-11T22:10:21.730Z,50.13
2018-01-11T22:12:49.709Z,56.63
2018-01-11T22:15:17.689Z,50.87
2018-01-11T22:17:45.671Z,48.28
2018-01-11T22:20:14.451Z,50.12
2018-01-11T22:22:42.454Z,51.80
2018-01-11T22:25:10.447Z,48.08
2018-01-11T22:27:38.454Z,52.00
2018-01-11T22:30:06.482Z,44.97
2018-01-11T22:32:34.466Z,42.60
2018-01-11T22:35:02.446Z,47.40
2018-01-11T22:37:30.449Z,49.97
2018-01-11T22:39:59.201Z,57.40
2018-01-11T22:42:27.210Z,47.73
2018-01-11T22:44:56.002Z,49.43
2018-01-11T22:47:24.776Z,46.77
2018-01-11T22:49:52.782Z,48.60
2018-01-11T22:52:20.797Z,47.25
2018-01-11T22:54:48.825Z,50.60
2018-01-11T22:57:16.835Z,48.43
2018-01-11T22:59:46.338Z,46.73
2018-01-11T23:02:14.315Z,53.10
2018-01-11T23:04:42.334Z,53.60
2018-01-11T23:07:10.334Z,53.83
2018-01-11T23:09:39.083Z,45.97
2018-01-11T23:12:07.086Z,48.60
2018-01-11T23:14:35.075Z,54.10
2018-01-11T23:17:03.080Z,48.80
2018-01-11T23:19:31.824Z,56.17
2018-01-11T23:21:59.799Z,52.27
2018-01-11T23:24:27.810Z,53.13
2018-01-11T23:26:55.847Z,51.45
2018-01-11T23:29:23.869Z,49.00
2018-01-11T23:31:51.839Z,50.77
2018-01-11T23:34:19.853Z,50.07
2018-01-11T23:36:47.835Z,51.93
2018-01-11T23:39:15.826Z,49.83
2018-01-11T23:41:43.815Z,53.50
2018-01-11T23:44:11.798Z,58.60
2018-01-11T23:46:39.791Z,59.97
2018-01-11T23:49:07.780Z,55.45
2018-01-11T23:51:35.766Z,63.37
2018-01-11T23:54:04.518Z,55.00
2018-01-11T23:56:32.526Z,60.37
2018-01-11T23:59:00.558Z,61.35
